Time;durP1;ratioP1;P1;durP2;ratioP2;P2;SDS_P1;SDS_P2;PMS_P1;PMS_P2;Temp;Humidity;BMP_temperature;BMP_pressure;BME280_temperature;BME280_humidity;BME280_pressure;Samples;Min_cycle;Max_cycle;Signal;HPM_P1;HPM_P2
2022/03/07 00:00:41;;;;;;;3.92;2.00;;;;;;;;;;5003937;28;20028;-77
2022/03/07 00:03:07;;;;;;;2.90;2.15;;;;;;;;;;5004581;28;20279;-78
2022/03/07 00:05:33;;;;;;;5.75;2.65;;;;;;;;;;5003156;28;20030;-79
2022/03/07 00:07:59;;;;;;;3.97;2.60;;;;;;;;;;5006499;28;20041;-77
2022/03/07 00:10:25;;;;;;;3.42;2.35;;;;;;;;;;5012200;28;20052;-77
2022/03/07 00:12:51;;;;;;;4.43;2.67;;;;;;;;;;5000718;28;20028;-77
2022/03/07 00:15:18;;;;;;;3.92;2.28;;;;;;;;;;5005784;28;20034;-77
2022/03/07 00:17:44;;;;;;;4.05;3.13;;;;;;;;;;5008716;28;20112;-77
2022/03/07 00:20:10;;;;;;;5.28;2.05;;;;;;;;;;5008701;28;20049;-77
2022/03/07 00:22:36;;;;;;;6.72;2.63;;;;;;;;;;5003559;28;20065;-77
2022/03/07 00:25:02;;;;;;;7.85;2.90;;;;;;;;;;5009924;28;20061;-78
2022/03/07 00:27:28;;;;;;;4.00;2.00;;;;;;;;;;5008225;28;20026;-78
2022/03/07 00:29:54;;;;;;;5.93;3.45;;;;;;;;;;5006830;28;20040;-77
2022/03/07 00:32:20;;;;;;;4.95;2.80;;;;;;;;;;5003483;28;20028;-78
2022/03/07 00:34:46;;;;;;;4.68;2.85;;;;;;;;;;5009664;28;20057;-78
2022/03/07 00:37:12;;;;;;;4.15;2.25;;;;;;;;;;5003164;28;20137;-78
2022/03/07 00:39:38;;;;;;;6.30;3.08;;;;;;;;;;5010522;28;20033;-79
2022/03/07 00:42:05;;;;;;;4.40;2.58;;;;;;;;;;5007142;28;20021;-77
2022/03/07 00:44:30;;;;;;;3.92;2.35;;;;;;;;;;5004651;28;20040;-78
2022/03/07 00:46:57;;;;;;;5.15;2.70;;;;;;;;;;5005646;28;20029;-77
2022/03/07 00:49:22;;;;;;;3.60;2.17;;;;;;;;;;5001951;28;21073;-77
2022/03/07 00:51:48;;;;;;;4.85;2.88;;;;;;;;;;5004832;28;20022;-78
2022/03/07 00:54:14;;;;;;;4.50;3.10;;;;;;;;;;5010658;28;20037;-78
2022/03/07 00:56:40;;;;;;;5.40;2.78;;;;;;;;;;5004598;28;20104;-78
2022/03/07 00:59:06;;;;;;;3.75;2.50;;;;;;;;;;5006569;28;20038;-77
2022/03/07 01:01:32;;;;;;;7.57;3.22;;;;;;;;;;5005136;28;20033;-77
2022/03/07 01:03:58;;;;;;;4.68;3.10;;;;;;;;;;4996893;28;20097;-76
2022/03/07 01:06:24;;;;;;;5.10;2.70;;;;;;;;;;4998333;28;20136;-78
2022/03/07 01:08:50;;;;;;;6.90;3.72;;;;;;;;;;5001682;28;20056;-78
2022/03/07 01:11:16;;;;;;;6.80;3.90;;;;;;;;;;5005535;28;20030;-77
2022/03/07 01:13:42;;;;;;;7.13;2.92;;;;;;;;;;5002862;28;20147;-78
2022/03/07 01:16:08;;;;;;;4.38;2.75;;;;;;;;;;5005126;28;20026;-78
2022/03/07 01:18:34;;;;;;;6.13;2.78;;;;;;;;;;5003176;28;20134;-75
2022/03/07 01:21:00;;;;;;;4.40;2.38;;;;;;;;;;4997307;28;20502;-76
2022/03/07 01:23:26;;;;;;;3.83;1.92;;;;;;;;;;5006720;28;20034;-78
2022/03/07 01:25:52;;;;;;;5.45;3.13;;;;;;;;;;5008410;28;20116;-78
2022/03/07 01:28:18;;;;;;;3.78;1.98;;;;;;;;;;5004108;28;20548;-78
2022/03/07 01:30:44;;;;;;;6.65;2.25;;;;;;;;;;5006595;28;20271;-78
2022/03/07 01:33:10;;;;;;;3.10;1.88;;;;;;;;;;5003257;28;20091;-77
2022/03/07 01:35:36;;;;;;;3.22;1.67;;;;;;;;;;5002902;28;20512;-77
2022/03/07 01:38:03;;;;;;;1.90;1.58;;;;;;;;;;5001347;28;20332;-76
2022/03/07 01:40:29;;;;;;;4.03;2.05;;;;;;;;;;5007775;28;20034;-78
2022/03/07 01:42:55;;;;;;;4.93;2.13;;;;;;;;;;4999562;28;20026;-77
2022/03/07 01:45:22;;;;;;;2.03;1.50;;;;;;;;;;5001504;28;20030;-77
2022/03/07 01:47:48;;;;;;;3.35;2.55;;;;;;;;;;5008902;28;20034;-78
2022/03/07 01:50:15;;;;;;;3.95;2.00;;;;;;;;;;5006367;28;20413;-78
2022/03/07 01:52:43;;;;;;;4.03;2.42;;;;;;;;;;5004584;28;20057;-78
2022/03/07 01:55:10;;;;;;;4.93;1.77;;;;;;;;;;5000373;28;20046;-78
2022/03/07 01:57:39;;;;;;;1.67;1.35;;;;;;;;;;4999205;28;20034;-76
2022/03/07 02:00:08;;;;;;;3.20;1.38;;;;;;;;;;5005017;28;20034;-76
2022/03/07 02:02:34;;;;;;;2.30;1.23;;;;;;;;;;5010732;28;20026;-77
2022/03/07 02:05:00;;;;;;;3.47;2.08;;;;;;;;;;5001948;28;20037;-77
2022/03/07 02:07:26;;;;;;;4.43;1.90;;;;;;;;;;4996192;28;20030;-77
2022/03/07 02:09:52;;;;;;;3.67;1.92;;;;;;;;;;5006263;28;20045;-77
2022/03/07 02:12:18;;;;;;;2.33;1.33;;;;;;;;;;4997646;28;20066;-76
2022/03/07 02:14:44;;;;;;;5.03;2.60;;;;;;;;;;5008945;28;20066;-76
2022/03/07 02:17:10;;;;;;;3.08;2.08;;;;;;;;;;5009317;28;20033;-77
2022/03/07 02:19:37;;;;;;;17.35;1.98;;;;;;;;;;5007178;28;20108;-76
2022/03/07 02:22:04;;;;;;;4.28;2.20;;;;;;;;;;4998173;28;20022;-76
2022/03/07 02:24:30;;;;;;;4.93;2.58;;;;;;;;;;5003769;28;20962;-77
2022/03/07 02:26:57;;;;;;;5.50;2.35;;;;;;;;;;5004302;28;20069;-77
2022/03/07 02:29:23;;;;;;;3.05;1.52;;;;;;;;;;5005803;28;20109;-77
2022/03/07 02:31:49;;;;;;;3.42;1.35;;;;;;;;;;5003602;28;20593;-77
2022/03/07 02:34:15;;;;;;;4.78;1.90;;;;;;;;;;5006317;28;20060;-76
2022/03/07 02:36:41;;;;;;;6.97;2.58;;;;;;;;;;5006875;28;20478;-76
2022/03/07 02:39:07;;;;;;;2.28;1.52;;;;;;;;;;5011163;28;20049;-76
2022/03/07 02:41:33;;;;;;;3.53;1.63;;;;;;;;;;5012316;28;20471;-76
2022/03/07 02:43:59;;;;;;;4.13;1.60;;;;;;;;;;5008096;28;20397;-76
2022/03/07 02:46:25;;;;;;;4.57;1.88;;;;;;;;;;5005704;28;20038;-76
2022/03/07 02:48:51;;;;;;;5.38;1.70;;;;;;;;;;5010974;28;20029;-77
2022/03/07 02:51:17;;;;;;;2.55;1.60;;;;;;;;;;5004918;28;20033;-76
2022/03/07 02:53:43;;;;;;;10.18;1.73;;;;;;;;;;4999767;28;20113;-76
2022/03/07 02:56:09;;;;;;;2.67;1.58;;;;;;;;;;5009710;28;20109;-76
2022/03/07 02:58:35;;;;;;;9.93;1.33;;;;;;;;;;5005309;28;20039;-76
2022/03/07 03:01:01;;;;;;;3.60;2.38;;;;;;;;;;5009298;28;20029;-76
2022/03/07 03:03:27;;;;;;;3.38;1.63;;;;;;;;;;5001912;28;20372;-77
2022/03/07 03:05:54;;;;;;;2.58;1.52;;;;;;;;;;5001080;28;20049;-76
2022/03/07 03:08:20;;;;;;;1.88;1.10;;;;;;;;;;5007953;28;20037;-76
2022/03/07 03:10:46;;;;;;;2.83;1.65;;;;;;;;;;5006046;28;20087;-76
2022/03/07 03:13:12;;;;;;;2.53;1.98;;;;;;;;;;5002424;28;20502;-76
2022/03/07 03:15:38;;;;;;;3.85;1.65;;;;;;;;;;5000655;28;20037;-77
2022/03/07 03:18:04;;;;;;;3.65;1.80;;;;;;;;;;5009630;28;20057;-76
2022/03/07 03:20:31;;;;;;;1.55;1.45;;;;;;;;;;5006814;28;20113;-76
2022/03/07 03:22:57;;;;;;;2.33;1.40;;;;;;;;;;5002743;28;20073;-77
2022/03/07 03:25:23;;;;;;;2.42;1.67;;;;;;;;;;5003433;28;20793;-76
2022/03/07 03:27:49;;;;;;;3.25;1.90;;;;;;;;;;5004260;28;20017;-76
2022/03/07 03:30:15;;;;;;;2.55;1.75;;;;;;;;;;5008707;28;20018;-76
2022/03/07 03:32:41;;;;;;;3.65;1.83;;;;;;;;;;5007975;28;20045;-77
2022/03/07 03:35:08;;;;;;;4.00;1.83;;;;;;;;;;4999300;28;20486;-76
2022/03/07 03:37:34;;;;;;;1.48;1.23;;;;;;;;;;5004971;28;20045;-75
2022/03/07 03:40:00;;;;;;;4.50;2.97;;;;;;;;;;5003371;28;20103;-76
2022/03/07 03:42:26;;;;;;;2.30;2.10;;;;;;;;;;5007094;28;20033;-76
2022/03/07 03:44:52;;;;;;;4.00;1.75;;;;;;;;;;5007877;28;20458;-76
2022/03/07 03:47:18;;;;;;;2.85;1.42;;;;;;;;;;5005206;28;20038;-77
2022/03/07 03:49:44;;;;;;;4.38;1.42;;;;;;;;;;5003844;28;20033;-77
2022/03/07 03:52:10;;;;;;;3.08;1.33;;;;;;;;;;5001490;28;20425;-77
2022/03/07 03:54:36;;;;;;;2.22;1.13;;;;;;;;;;5006498;28;20041;-76
2022/03/07 03:57:02;;;;;;;2.90;2.00;;;;;;;;;;5002970;28;20542;-76
2022/03/07 03:59:28;;;;;;;4.75;2.00;;;;;;;;;;5008499;28;20022;-76
2022/03/07 04:01:54;;;;;;;2.40;1.88;;;;;;;;;;5004644;28;20028;-76
2022/03/07 04:04:20;;;;;;;3.05;1.98;;;;;;;;;;5004857;28;20117;-76
2022/03/07 04:06:46;;;;;;;3.92;1.60;;;;;;;;;;5001419;28;20239;-76
2022/03/07 04:09:15;;;;;;;1.13;1.02;;;;;;;;;;5004189;28;20033;-76
2022/03/07 04:11:41;;;;;;;3.60;1.50;;;;;;;;;;4995438;28;20037;-76
2022/03/07 04:14:07;;;;;;;3.92;1.73;;;;;;;;;;5010524;28;20025;-76
2022/03/07 04:16:35;;;;;;;7.50;3.00;;;;;;;;;;4998679;28;20038;-77
2022/03/07 04:19:01;;;;;;;3.00;1.67;;;;;;;;;;5007744;28;20052;-77
2022/03/07 04:21:27;;;;;;;2.80;1.70;;;;;;;;;;4996909;28;20041;-77
2022/03/07 04:23:54;;;;;;;2.55;1.48;;;;;;;;;;5002738;28;20033;-76
2022/03/07 04:26:20;;;;;;;6.10;2.50;;;;;;;;;;5005269;28;20038;-77
2022/03/07 04:28:46;;;;;;;4.25;2.70;;;;;;;;;;5002895;28;20029;-76
2022/03/07 04:31:12;;;;;;;6.43;1.85;;;;;;;;;;5002438;28;20564;-76
2022/03/07 04:33:38;;;;;;;4.55;2.22;;;;;;;;;;5009009;28;20013;-77
2022/03/07 04:36:05;;;;;;;4.47;2.72;;;;;;;;;;5003561;28;20022;-76
2022/03/07 04:38:31;;;;;;;4.97;3.03;;;;;;;;;;4998248;28;20041;-77
2022/03/07 04:40:57;;;;;;;4.05;2.40;;;;;;;;;;5002872;28;20033;-77
2022/03/07 04:43:23;;;;;;;4.90;2.00;;;;;;;;;;5003870;28;20040;-77
2022/03/07 04:45:52;;;;;;;7.63;4.05;;;;;;;;;;5007083;28;20041;-76
2022/03/07 04:48:18;;;;;;;4.95;1.88;;;;;;;;;;5006529;28;20418;-77
2022/03/07 04:50:44;;;;;;;3.42;2.35;;;;;;;;;;5011224;28;20049;-76
2022/03/07 04:53:10;;;;;;;4.03;2.13;;;;;;;;;;5004975;28;20068;-77
2022/03/07 04:55:36;;;;;;;3.22;2.22;;;;;;;;;;5008821;28;20549;-75
2022/03/07 04:58:02;;;;;;;4.72;1.88;;;;;;;;;;5008366;28;20509;-77
2022/03/07 05:00:28;;;;;;;9.63;3.40;;;;;;;;;;5007016;28;20044;-76
2022/03/07 05:02:54;;;;;;;6.30;3.42;;;;;;;;;;5008350;28;20042;-76
2022/03/07 05:05:20;;;;;;;7.35;3.55;;;;;;;;;;5004736;28;20391;-76
2022/03/07 05:07:49;;;;;;;5.60;1.85;;;;;;;;;;4997482;28;20034;-76
2022/03/07 05:10:16;;;;;;;6.18;3.08;;;;;;;;;;5004916;28;20029;-75
2022/03/07 05:12:42;;;;;;;3.85;2.45;;;;;;;;;;5003454;28;20050;-78
2022/03/07 05:15:08;;;;;;;5.35;2.35;;;;;;;;;;5002498;28;20478;-78
2022/03/07 05:17:44;;;;;;;2.55;1.58;;;;;;;;;;4997093;28;20543;-78
2022/03/07 05:20:31;;;;;;;7.30;2.47;;;;;;;;;;5003915;28;20042;-77
2022/03/07 05:22:58;;;;;;;5.43;2.33;;;;;;;;;;4987952;28;20049;-76
2022/03/07 05:25:25;;;;;;;9.35;2.97;;;;;;;;;;5000125;28;20109;-77
2022/03/07 05:27:51;;;;;;;4.75;2.85;;;;;;;;;;5003140;28;20058;-76
2022/03/07 05:30:18;;;;;;;6.35;2.70;;;;;;;;;;5000380;28;20038;-76
2022/03/07 05:32:45;;;;;;;6.72;2.25;;;;;;;;;;4990760;28;20113;-76
2022/03/07 05:35:11;;;;;;;5.00;2.50;;;;;;;;;;4989357;28;20521;-75
2022/03/07 05:37:37;;;;;;;7.07;3.60;;;;;;;;;;4993690;28;20394;-76
2022/03/07 05:40:04;;;;;;;5.15;1.88;;;-0.60;99.90;;;;;;4994625;28;20027;-76
2022/03/07 05:42:30;;;;;;;5.35;3.30;;;;;;;;;;4993297;28;20030;-76
2022/03/07 05:44:56;;;;;;;8.85;3.88;;;;;;;;;;4999433;28;20096;-76
2022/03/07 05:47:22;;;;;;;6.43;2.38;;;;;;;;;;5000061;28;20041;-75
2022/03/07 05:49:48;;;;;;;4.78;2.30;;;;;;;;;;4994798;28;20057;-75
2022/03/07 05:52:15;;;;;;;6.90;2.95;;;;;;;;;;4998152;28;20628;-75
2022/03/07 05:54:41;;;;;;;8.82;3.60;;;;;;;;;;4998507;28;20429;-75
2022/03/07 05:57:07;;;;;;;6.22;1.65;;;;;;;;;;5003856;28;20030;-76
2022/03/07 05:59:33;;;;;;;9.07;3.67;;;;;;;;;;5006448;28;20038;-75
2022/03/07 06:01:59;;;;;;;4.72;2.47;;;;;;;;;;5008965;28;20556;-76
2022/03/07 06:04:25;;;;;;;10.23;2.83;;;;;;;;;;5000818;28;20058;-76
2022/03/07 06:06:51;;;;;;;7.38;3.40;;;;;;;;;;5006537;28;20141;-76
2022/03/07 06:09:17;;;;;;;18.27;3.80;;;;;;;;;;5003250;28;20041;-76
2022/03/07 06:11:43;;;;;;;6.35;2.60;;;;;;;;;;5002636;28;20034;-76
2022/03/07 06:14:09;;;;;;;5.25;2.90;;;;;;;;;;5002165;28;20145;-76
2022/03/07 06:16:35;;;;;;;5.55;2.40;;;;;;;;;;4995848;28;20041;-75
2022/03/07 06:19:00;;;;;;;5.38;2.60;;;;;;;;;;5006168;28;20033;-76
2022/03/07 06:21:27;;;;;;;6.38;2.38;;;;;;;;;;5008081;28;20032;-77
2022/03/07 06:23:53;;;;;;;3.85;2.38;;;;;;;;;;5008621;28;20093;-77
2022/03/07 06:26:19;;;;;;;7.68;4.20;;;;;;;;;;5004629;28;20030;-76
2022/03/07 06:28:45;;;;;;;4.68;2.33;;;;;;;;;;5004577;28;20500;-77
2022/03/07 06:31:11;;;;;;;9.65;3.78;;;;;;;;;;5009425;28;20038;-77
2022/03/07 06:33:37;;;;;;;5.22;2.55;;;;;;;;;;5008975;28;20061;-76
2022/03/07 06:36:06;;;;;;;2.90;2.10;;;;;;;;;;5001701;28;20116;-77
2022/03/07 06:38:32;;;;;;;8.35;3.70;;;;;;;;;;5006561;28;20387;-76
2022/03/07 06:40:58;;;;;;;3.47;2.55;;;;;;;;;;5008976;28;20040;-76
2022/03/07 06:43:24;;;;;;;4.55;2.42;;;;;;;;;;5003173;28;20034;-76
2022/03/07 06:45:50;;;;;;;7.43;2.85;;;;;;;;;;5007696;28;20042;-77
2022/03/07 06:48:16;;;;;;;3.42;2.35;;;;;;;;;;5011268;28;20425;-76
2022/03/07 06:50:42;;;;;;;3.58;2.33;;;;;;;;;;5003323;28;20034;-77
2022/03/07 06:53:08;;;;;;;5.85;2.72;;;;;;;;;;5003450;28;20037;-76
2022/03/07 06:55:34;;;;;;;4.65;2.15;;;;;;;;;;5007009;28;20022;-76
2022/03/07 06:58:00;;;;;;;3.50;2.58;;;;;;;;;;5004031;28;20045;-76
2022/03/07 07:00:26;;;;;;;7.68;3.00;;;;;;;;;;4998220;28;20026;-76
2022/03/07 07:02:52;;;;;;;5.30;3.20;;;;;;;;;;5006135;28;20052;-76
2022/03/07 07:05:18;;;;;;;4.00;3.22;;;;;;;;;;5004705;28;20105;-76
2022/03/07 07:07:44;;;;;;;6.47;3.63;;;;;;;;;;5002118;28;20060;-76
2022/03/07 07:10:10;;;;;;;6.70;3.58;;;;;;;;;;5010531;28;20065;-77
2022/03/07 07:12:36;;;;;;;3.20;1.95;;;;;;;;;;5006390;28;20029;-75
2022/03/07 07:15:06;;;;;;;4.45;2.95;;;;;;;;;;5005140;28;20029;-76
2022/03/07 07:17:33;;;;;;;4.63;2.83;;;;;;;;;;5008220;28;20433;-77
2022/03/07 07:19:59;;;;;;;7.20;3.25;;;;;;;;;;5003675;28;20060;-76
2022/03/07 07:22:25;;;;;;;5.40;2.97;;;;;;;;;;5004686;28;20049;-74
2022/03/07 07:24:51;;;;;;;3.90;2.58;;;;;;;;;;5017077;28;20427;-77
2022/03/07 07:27:17;;;;;;;10.75;3.97;;;;;;;;;;5004567;28;20087;-77
2022/03/07 07:29:43;;;;;;;4.90;3.03;;;;;;;;;;5008312;28;20029;-77
2022/03/07 07:32:09;;;;;;;7.25;3.42;;;;;;;;;;5007880;28;20098;-75
2022/03/07 07:34:35;;;;;;;5.80;2.47;;;;;;;;;;5009393;28;20113;-76
2022/03/07 07:37:01;;;;;;;6.10;2.90;;;;;;;;;;5002940;28;20026;-75
2022/03/07 07:39:27;;;;;;;5.88;2.97;;;;;;;;;;5008874;28;20038;-75
2022/03/07 07:41:55;;;;;;;6.07;2.97;;;;;;;;;;5009222;28;20022;-75
2022/03/07 07:44:21;;;;;;;9.30;3.60;;;;;;;;;;5008428;28;20116;-76
2022/03/07 07:46:47;;;;;;;15.65;3.17;;;;;;;;;;5007588;28;20588;-77
2022/03/07 07:49:14;;;;;;;9.40;4.30;;;;;;;;;;5007555;28;20030;-77
2022/03/07 07:51:40;;;;;;;6.22;3.20;;;;;;;;;;5005596;28;20629;-75
2022/03/07 07:54:06;;;;;;;6.13;3.88;;;;;;;;;;5011390;28;20098;-75
2022/03/07 07:56:32;;;;;;;5.95;3.08;;;;;;;;;;5009116;28;20132;-76
2022/03/07 07:58:58;;;;;;;5.13;2.90;;;;;;;;;;5007452;28;20053;-77
2022/03/07 08:01:24;;;;;;;6.50;3.67;;;;;;;;;;5005310;28;20129;-76
2022/03/07 08:03:50;;;;;;;7.32;4.15;;;;;;;;;;5005117;28;20030;-76
2022/03/07 08:06:16;;;;;;;6.93;3.45;;;;;;;;;;5005335;28;20052;-75
2022/03/07 08:08:42;;;;;;;11.85;3.97;;;;;;;;;;5007358;28;20022;-77
2022/03/07 08:11:08;;;;;;;7.97;3.53;;;;;;;;;;5003429;28;20025;-77
2022/03/07 08:13:34;;;;;;;4.53;2.85;;;;;;;;;;5000709;28;20053;-76
2022/03/07 08:16:00;;;;;;;4.72;3.20;;;;;;;;;;5010489;28;20081;-76
2022/03/07 08:18:26;;;;;;;6.82;3.05;;;;;;;;;;5006775;28;20046;-76
2022/03/07 08:20:52;;;;;;;10.45;4.20;;;;;;;;;;5006876;28;20022;-76
2022/03/07 08:23:18;;;;;;;5.97;3.42;;;;;;;;;;5004579;28;20030;-75
2022/03/07 08:25:44;;;;;;;6.00;3.42;;;;;;;;;;5008925;28;20048;-77
2022/03/07 08:28:11;;;;;;;8.32;4.57;;;;;;;;;;5003299;28;20052;-76
2022/03/07 08:30:37;;;;;;;6.18;3.75;;;;;;;;;;5010430;28;20029;-76
2022/03/07 08:33:03;;;;;;;6.55;4.10;;;;;;;;;;5004423;28;20386;-76
2022/03/07 08:35:29;;;;;;;8.75;3.67;;;;;;;;;;5006665;28;20030;-77
2022/03/07 08:37:55;;;;;;;8.10;3.67;;;;;;;;;;5000519;28;20044;-76
2022/03/07 08:40:22;;;;;;;7.97;3.35;;;;;;;;;;5007514;28;20021;-78
2022/03/07 08:42:48;;;;;;;5.03;2.92;;;;;;;;;;5008924;28;20390;-76
2022/03/07 08:45:14;;;;;;;8.30;3.45;;;;;;;;;;5006767;28;20548;-76
2022/03/07 08:47:41;;;;;;;8.85;4.32;;;;;;;;;;5001012;28;20038;-77
2022/03/07 08:50:08;;;;;;;8.75;4.97;;;;;;;;;;5009989;28;20079;-76
2022/03/07 08:52:34;;;;;;;7.85;3.65;;;;;;;;;;5002902;28;20026;-76
2022/03/07 08:55:01;;;;;;;5.20;3.15;;;;;;;;;;5002918;28;20026;-76
2022/03/07 08:57:27;;;;;;;8.38;4.13;;;;;;;;;;5004742;28;20048;-77
2022/03/07 08:59:53;;;;;;;8.07;4.22;;;;;;;;;;5012187;28;20037;-77
2022/03/07 09:02:19;;;;;;;7.38;3.47;;;;;;;;;;5009498;28;20032;-76
2022/03/07 09:04:45;;;;;;;9.57;3.58;;;;;;;;;;5001800;28;20030;-75
2022/03/07 09:07:11;;;;;;;9.82;4.25;;;;;;;;;;5003090;28;20110;-76
2022/03/07 09:09:37;;;;;;;7.15;4.30;;;;;;;;;;5009271;28;20406;-77
2022/03/07 09:12:04;;;;;;;7.95;4.03;;;;;;;;;;5007199;28;20022;-77
2022/03/07 09:14:30;;;;;;;9.18;4.35;;;;;;;;;;5003804;28;20026;-77
2022/03/07 09:16:56;;;;;;;9.18;4.72;;;;;;;;;;5008272;28;20061;-75
2022/03/07 09:19:23;;;;;;;11.15;4.82;;;;;;;;;;5006322;28;20042;-76
2022/03/07 09:21:49;;;;;;;10.60;4.60;;;;;;;;;;5005806;28;20112;-76
2022/03/07 09:24:15;;;;;;;6.63;4.60;;;;;;;;;;5005779;28;20038;-76
2022/03/07 09:26:41;;;;;;;11.25;3.65;;;;;;;;;;5003054;28;20332;-77
2022/03/07 09:29:07;;;;;;;9.63;4.72;;;;;;;;;;5004361;28;20394;-76
2022/03/07 09:31:33;;;;;;;10.90;4.93;;;;;;;;;;5008146;28;20113;-77
2022/03/07 09:33:59;;;;;;;9.50;5.32;;;;;;;;;;5005697;28;20466;-77
2022/03/07 09:36:25;;;;;;;8.10;4.40;;;;;;;;;;5003471;28;20030;-76
2022/03/07 09:38:51;;;;;;;13.13;5.13;;;;;;;;;;5007126;28;20042;-77
2022/03/07 09:41:18;;;;;;;11.10;5.25;;;;;;;;;;5007264;28;20030;-76
2022/03/07 09:43:44;;;;;;;11.07;4.38;;;;;;;;;;5004970;28;20022;-76
2022/03/07 09:46:10;;;;;;;9.82;5.18;;;;;;;;;;5004713;28;20121;-77
2022/03/07 09:48:36;;;;;;;8.32;5.00;;;;;;;;;;5011192;28;20026;-77
2022/03/07 09:51:03;;;;;;;10.10;5.10;;;;;;;;;;5011429;28;20057;-77
2022/03/07 09:53:29;;;;;;;9.65;4.07;;;;;;;;;;5004389;28;20034;-76
2022/03/07 09:55:55;;;;;;;7.88;4.32;;;;;;;;;;5006794;28;20036;-75
2022/03/07 09:58:21;;;;;;;7.40;4.57;;;;;;;;;;5004464;28;20693;-76
2022/03/07 10:00:47;;;;;;;8.68;4.45;;;;;;;;;;5007215;28;20041;-77
2022/03/07 10:03:20;;;;;;;7.80;4.70;;;;;;;;;;5008553;28;20034;-77
2022/03/07 10:05:47;;;;;;;10.20;5.57;;;;;;;;;;4997464;28;20034;-76
2022/03/07 10:08:24;;;;;;;10.00;4.78;;;;;;;;;;5006197;28;20034;-77
2022/03/07 10:10:52;;;;;;;9.57;3.80;;;;;;;;;;5007192;28;20026;-78
2022/03/07 10:13:18;;;;;;;10.77;5.28;;;;;;;;;;4998685;28;20119;-77
2022/03/07 10:15:44;;;;;;;9.55;5.45;;;;;;;;;;5009863;28;20033;-77
2022/03/07 10:18:15;;;;;;;10.20;5.68;;;3.60;80.60;;;;;;5008895;28;20050;-77
2022/03/07 10:20:48;;;;;;;7.88;4.88;;;;;;;;;;5006363;28;20517;-77
2022/03/07 10:23:14;;;;;;;10.35;6.55;;;;;;;;;;5003164;28;20030;-78
2022/03/07 10:25:43;;;;;;;11.27;4.90;;;;;;;;;;4999671;28;20033;-77
2022/03/07 10:28:09;;;;;;;9.13;4.68;;;;;;;;;;5000388;28;20033;-76
2022/03/07 10:30:36;;;;;;;10.63;4.15;;;;;;;;;;5007302;28;20022;-78
2022/03/07 10:33:05;;;;;;;9.52;3.97;;;;;;;;;;5001852;28;20073;-77
2022/03/07 10:35:38;;;;;;;9.80;5.63;;;;;;;;;;5003930;28;20028;-77
2022/03/07 10:38:10;;;;;;;7.60;4.13;;;;;;;;;;5006651;28;20101;-77
2022/03/07 10:40:39;;;;;;;9.18;3.83;;;;;;;;;;5011069;28;20030;-78
2022/03/07 10:43:05;;;;;;;9.20;4.57;;;;;;;;;;5007984;28;20042;-77
2022/03/07 10:45:31;;;;;;;12.45;4.63;;;;;;;;;;5007321;28;20537;-77
2022/03/07 10:47:58;;;;;;;8.30;4.07;;;;;;;;;;5007502;28;20026;-77
2022/03/07 10:50:25;;;;;;;10.23;5.07;;;;;;;;;;5009396;28;20084;-78
2022/03/07 10:52:52;;;;;;;17.02;4.57;;;;;;;;;;4995747;28;20079;-78
2022/03/07 10:55:25;;;;;;;12.20;6.13;;;;;;;;;;5006863;28;20094;-77
2022/03/07 10:57:51;;;;;;;8.10;4.45;;;;;;;;;;5009661;28;20104;-78
2022/03/07 11:00:18;;;;;;;12.13;5.50;;;;;;;;;;5008444;28;20084;-77
2022/03/07 11:02:45;;;;;;;10.85;5.50;;;;;;;;;;5010795;28;20437;-78
2022/03/07 11:05:12;;;;;;;9.52;5.72;;;;;;;;;;5008331;28;20037;-80
2022/03/07 11:07:38;;;;;;;9.88;5.05;;;;;;;;;;5007730;28;20026;-80
2022/03/07 11:10:06;;;;;;;8.68;4.93;;;3.80;81.50;;;;;;5006246;28;20030;-75
2022/03/07 11:12:33;;;;;;;15.43;6.28;;;;;;;;;;5006421;28;20537;-77
2022/03/07 11:15:00;;;;;;;9.20;5.07;;;;;;;;;;5009343;28;20034;-76
2022/03/07 11:17:27;;;;;;;12.40;5.68;;;;;;;;;;5007089;28;20394;-78
2022/03/07 11:19:54;;;;;;;10.85;5.47;;;;;;;;;;5006997;28;20379;-80
2022/03/07 11:22:20;;;;;;;8.52;5.13;;;;;;;;;;5002767;28;20522;-79
2022/03/07 11:24:46;;;;;;;7.68;5.10;;;;;;;;;;4998385;28;20269;-79
2022/03/07 11:27:15;;;;;;;11.90;5.72;;;;;;;;;;5006472;28;20049;-79
2022/03/07 11:29:42;;;;;;;10.23;5.32;;;;;;;;;;5001969;28;20061;-78
2022/03/07 11:32:09;;;;;;;9.60;4.88;;;;;;;;;;5005178;28;20021;-79
2022/03/07 11:34:35;;;;;;;12.75;6.90;;;;;;;;;;5005828;28;20037;-80
2022/03/07 11:37:01;;;;;;;13.65;6.20;;;;;;;;;;4996685;28;20037;-78
2022/03/07 11:39:32;;;;;;;10.80;5.20;;;;;;;;;;5007946;28;20124;-78
2022/03/07 11:42:07;;;;;;;12.02;5.72;;;;;;;;;;5005692;28;20390;-78
2022/03/07 11:44:33;;;;;;;10.23;5.18;;;;;;;;;;5000330;28;20139;-79
2022/03/07 11:47:08;;;;;;;10.02;5.15;;;;;;;;;;5005706;28;20042;-79
2022/03/07 11:49:34;;;;;;;9.57;5.07;;;;;;;;;;5006245;28;20054;-78
2022/03/07 11:52:10;;;;;;;12.85;6.32;;;;;;;;;;4999824;28;20034;-79
2022/03/07 11:54:50;;;;;;;9.50;6.30;;;;;;;;;;4997386;28;20488;-79
2022/03/07 11:57:16;;;;;;;15.05;4.85;;;;;;;;;;5002071;28;20035;-80
2022/03/07 11:59:42;;;;;;;15.07;5.88;;;;;;;;;;5003683;28;20126;-80
2022/03/07 12:02:09;;;;;;;13.23;5.45;;;;;;;;;;5012832;28;20023;-78
2022/03/07 12:04:42;;;;;;;10.43;5.38;;;;;;;;;;5005855;28;20457;-78
2022/03/07 12:07:08;;;;;;;;;;;;;;;;;;5017342;28;20026;-78
2022/03/07 12:09:35;;;;;;;12.38;5.43;;;;;;;;;;5008471;28;19916;-76
2022/03/07 12:12:30;;;;;;;10.90;5.47;;;;;;;;;;5011810;28;20046;-77
2022/03/07 12:15:06;;;;;;;12.07;5.65;;;;;;;;;;4996663;28;20236;-77
2022/03/07 12:17:32;;;;;;;8.57;5.07;;;;;;;;;;5012420;28;20028;-78
2022/03/07 12:20:01;;;;;;;10.18;6.47;;;;;;;;;;5013642;28;20720;-79
2022/03/07 12:22:28;;;;;;;15.48;5.38;;;;;;;;;;5013940;28;20022;-78
2022/03/07 12:25:00;;;;;;;11.85;6.25;;;;;;;;;;5009378;28;20045;-78
2022/03/07 12:27:26;;;;;;;13.07;6.90;;;;;;;;;;5003330;28;20076;-79
2022/03/07 12:29:52;;;;;;;12.48;6.78;;;;;;;;;;5010168;28;20119;-78
2022/03/07 12:32:31;;;;;;;10.35;5.82;;;;;;;;;;5013413;28;20030;-80
2022/03/07 12:35:18;;;;;;;9.82;5.40;;;;;;;;;;5009516;28;20092;-79
2022/03/07 12:37:47;;;;;;;9.18;5.05;;;;;;;;;;5002375;28;20053;-79
2022/03/07 12:40:22;;;;;;;9.68;4.60;;;;;;;;;;5012282;28;20073;-79
2022/03/07 12:42:50;;;;;;;10.98;5.53;;;;;;;;;;4997686;28;20034;-79
2022/03/07 12:45:19;;;;;;;8.98;5.28;;;;;;;;;;5010526;28;20046;-79
2022/03/07 12:47:51;;;;;;;10.63;6.03;;;;;;;;;;5002736;28;20041;-79
2022/03/07 12:50:23;;;;;;;12.60;5.57;;;;;;;;;;5010997;28;20084;-78
2022/03/07 12:52:50;;;;;;;13.43;5.38;;;;;;;;;;5004837;28;20509;-78
2022/03/07 12:55:19;;;;;;;11.90;5.53;;;;;;;;;;5007706;28;20041;-78
2022/03/07 12:57:48;;;;;;;11.02;6.25;;;;;;;;;;5002604;28;20064;-78
2022/03/07 13:00:18;;;;;;;10.43;5.70;;;;;;;;;;5006507;28;20079;-79
2022/03/07 13:02:58;;;;;;;11.23;6.32;;;;;;;;;;5011510;28;20034;-79
2022/03/07 13:05:28;;;;;;;15.03;6.17;;;;;;;;;;5009086;28;20049;-78
2022/03/07 13:08:00;;;;;;;8.50;5.25;;;;;;;;;;5004869;28;20044;-78
2022/03/07 13:10:40;;;;;;;8.93;5.28;;;;;;;;;;5011684;28;20121;-79
2022/03/07 13:13:07;;;;;;;15.35;6.07;;;;;;;;;;5027814;28;20037;-79
2022/03/07 13:15:42;;;;;;;12.63;6.30;;;;;;;;;;5018721;28;20033;-77
2022/03/07 13:18:11;;;;;;;12.43;5.80;;;;;;;;;;5028735;28;20077;-78
2022/03/07 13:20:37;;;;;;;13.98;6.40;;;;;;;;;;5026823;28;20036;-78
2022/03/07 13:23:05;;;;;;;8.93;4.93;;;;;;;;;;5020717;28;20041;-78
2022/03/07 13:25:40;;;;;;;15.63;7.32;;;;;;;;;;5031822;28;20401;-78
2022/03/07 13:28:09;;;;;;;13.40;6.50;;;;;;;;;;5021263;28;20032;-78
2022/03/07 13:30:35;;;;;;;14.00;5.70;;;;;;;;;;5022685;28;20060;-78
2022/03/07 13:33:05;;;;;;;11.55;5.38;;;;;;;;;;5025235;28;20033;-78
2022/03/07 13:35:31;;;;;;;10.93;6.03;;;;;;;;;;5024011;28;20119;-78
2022/03/07 13:37:58;;;;;;;18.98;5.70;;;;;;;;;;5024381;28;20103;-78
2022/03/07 13:40:36;;;;;;;17.05;5.82;;;;;;;;;;5026481;28;20025;-77
2022/03/07 13:43:03;;;;;;;10.90;5.43;;;;;;;;;;5022032;28;20021;-78
2022/03/07 13:45:30;;;;;;;10.35;6.07;;;;;;;;;;5029252;28;20057;-78
2022/03/07 13:48:04;;;;;;;12.88;5.78;;;;;;;;;;5026736;28;20657;-77
2022/03/07 13:50:30;;;;;;;14.95;6.57;;;;;;;;;;5021574;28;20033;-78
2022/03/07 13:53:06;;;;;;;11.48;6.22;;;;;;;;;;5021835;28;20041;-78
2022/03/07 13:55:37;;;;;;;11.93;7.05;;;;;;;;;;5029378;28;20121;-78
2022/03/07 13:58:05;;;;;;;13.43;6.60;;;;;;;;;;5014966;28;20046;-77
2022/03/07 14:00:31;;;;;;;13.20;6.40;;;;;;;;;;5020740;28;20028;-78
2022/03/07 14:03:01;;;;;;;12.43;6.20;;;;;;;;;;5032969;28;20474;-77
2022/03/07 14:05:39;;;;;;;9.40;4.95;;;;;;;;;;5019787;28;20271;-76
2022/03/07 14:08:05;;;;;;;14.10;6.20;;;;;;;;;;5027449;28;20072;-77
2022/03/07 14:10:31;;;;;;;10.57;5.43;;;;;;;;;;5020291;28;20478;-77
2022/03/07 14:12:58;;;;;;;16.30;5.43;;;;;;;;;;5022952;28;20025;-76
2022/03/07 14:15:26;;;;;;;9.18;5.05;;;;;;;;;;5032696;28;20044;-77
2022/03/07 14:17:56;;;;;;;9.07;4.97;;;;;;;;;;5016320;28;20429;-76
2022/03/07 14:20:22;;;;;;;12.02;4.72;;;;;;;;;;5037863;28;20103;-76
2022/03/07 14:22:49;;;;;;;10.95;5.43;;;;;;;;;;5031870;28;20021;-76
2022/03/07 14:25:16;;;;;;;11.88;5.47;;;;;;;;;;5032286;28;20041;-77
2022/03/07 14:27:43;;;;;;;8.13;4.43;;;;;;;;;;5027792;28;20481;-79
2022/03/07 14:30:09;;;;;;;10.82;4.45;;;;;;;;;;5021101;28;20024;-77
2022/03/07 14:32:35;;;;;;;9.82;5.10;;;;;;;;;;5017223;28;20053;-78
2022/03/07 14:35:01;;;;;;;11.18;5.45;;;;;;;;;;5020252;28;20018;-78
2022/03/07 14:37:29;;;;;;;10.35;4.70;;;;;;;;;;5017950;28;20040;-75